sensor_id;sensor_type;location;lat;lon;timestamp;pressure;altitude;pressure_sealevel;temperature;humidity
55610;BME280;41486;52.502;13.486;2022-12-18T00:01:57;102696.09;;;-6.05;100.00
55610;BME280;41486;52.502;13.486;2022-12-18T00:04:27;102700.13;;;-6.14;100.00
55610;BME280;41486;52.502;13.486;2022-12-18T00:06:56;102710.53;;;-6.08;100.00
55610;BME280;41486;52.502;13.486;2022-12-18T00:09:25;102707.41;;;-5.61;100.00
55610;BME280;41486;52.502;13.486;2022-12-18T00:12:06;102717.38;;;-6.09;100.00
55610;BME280;41486;52.502;13.486;2022-12-18T00:14:44;102716.28;;;-6.49;100.00
55610;BME280;41486;52.502;13.486;2022-12-18T00:17:12;102718.13;;;-6.45;100.00
55610;BME280;41486;52.502;13.486;2022-12-18T00:19:40;102718.75;;;-6.52;100.00
55610;BME280;41486;52.502;13.486;2022-12-18T00:22:09;102711.31;;;-6.43;100.00
55610;BME280;41486;52.502;13.486;2022-12-18T00:24:37;102714.91;;;-6.38;100.00
55610;BME280;41486;52.502;13.486;2022-12-18T00:27:05;102711.03;;;-6.22;100.00
55610;BME280;41486;52.502;13.486;2022-12-18T00:29:33;102702.75;;;-6.13;100.00
55610;BME280;41486;52.502;13.486;2022-12-18T00:32:04;102700.19;;;-6.13;100.00
55610;BME280;41486;52.502;13.486;2022-12-18T00:34:32;102708.59;;;-6.17;100.00
55610;BME280;41486;52.502;13.486;2022-12-18T00:37:00;102711.03;;;-6.22;100.00
55610;BME280;41486;52.502;13.486;2022-12-18T00:39:29;102709.38;;;-6.21;100.00
55610;BME280;41486;52.502;13.486;2022-12-18T00:41:58;102700.81;;;-6.20;100.00
55610;BME280;41486;52.502;13.486;2022-12-18T00:44:44;102708.94;;;-6.37;100.00
55610;BME280;41486;52.502;13.486;2022-12-18T00:47:12;102703.88;;;-6.35;100.00
55610;BME280;41486;52.502;13.486;2022-12-18T00:49:40;102700.00;;;-6.51;100.00
55610;BME280;41486;52.502;13.486;2022-12-18T00:52:08;102699.72;;;-6.30;100.00
55610;BME280;41486;52.502;13.486;2022-12-18T00:54:37;102698.50;;;-6.11;100.00
55610;BME280;41486;52.502;13.486;2022-12-18T00:57:05;102689.06;;;-6.13;100.00
55610;BME280;41486;52.502;13.486;2022-12-18T00:59:33;102688.78;;;-6.24;100.00
55610;BME280;41486;52.502;13.486;2022-12-18T01:02:01;102688.06;;;-6.19;100.00
55610;BME280;41486;52.502;13.486;2022-12-18T01:04:31;102693.09;;;-6.22;100.00
55610;BME280;41486;52.502;13.486;2022-12-18T01:06:59;102693.22;;;-6.17;100.00
55610;BME280;41486;52.502;13.486;2022-12-18T01:09:27;102699.44;;;-6.09;100.00
55610;BME280;41486;52.502;13.486;2022-12-18T01:11:57;102700.06;;;-6.18;100.00
55610;BME280;41486;52.502;13.486;2022-12-18T01:14:24;102708.28;;;-6.29;100.00
55610;BME280;41486;52.502;13.486;2022-12-18T01:16:52;102704.25;;;-6.21;100.00
55610;BME280;41486;52.502;13.486;2022-12-18T01:19:21;102706.56;;;-6.30;100.00
55610;BME280;41486;52.502;13.486;2022-12-18T01:21:51;102719.25;;;-6.35;100.00
55610;BME280;41486;52.502;13.486;2022-12-18T01:24:20;102721.81;;;-6.35;100.00
55610;BME280;41486;52.502;13.486;2022-12-18T01:26:48;102727.63;;;-6.41;100.00
55610;BME280;41486;52.502;13.486;2022-12-18T01:29:17;102726.09;;;-6.34;100.00
55610;BME280;41486;52.502;13.486;2022-12-18T01:31:45;102732.44;;;-6.21;100.00
55610;BME280;41486;52.502;13.486;2022-12-18T01:34:13;102737.13;;;-6.67;100.00
55610;BME280;41486;52.502;13.486;2022-12-18T01:36:41;102730.16;;;-6.71;100.00
55610;BME280;41486;52.502;13.486;2022-12-18T01:39:11;102731.59;;;-6.81;100.00
55610;BME280;41486;52.502;13.486;2022-12-18T01:41:41;102733.34;;;-6.80;100.00
55610;BME280;41486;52.502;13.486;2022-12-18T01:45:06;102735.88;;;-6.82;100.00
55610;BME280;41486;52.502;13.486;2022-12-18T01:47:51;102739.56;;;-6.72;100.00
55610;BME280;41486;52.502;13.486;2022-12-18T01:50:22;102729.00;;;-6.83;100.00
55610;BME280;41486;52.502;13.486;2022-12-18T01:52:56;102733.88;;;-6.61;100.00
55610;BME280;41486;52.502;13.486;2022-12-18T01:55:28;102724.59;;;-6.58;100.00
55610;BME280;41486;52.502;13.486;2022-12-18T01:57:58;102731.00;;;-6.42;100.00
55610;BME280;41486;52.502;13.486;2022-12-18T02:00:28;102740.16;;;-6.20;100.00
55610;BME280;41486;52.502;13.486;2022-12-18T02:02:57;102737.69;;;-6.47;100.00
55610;BME280;41486;52.502;13.486;2022-12-18T02:05:33;102746.19;;;-6.78;100.00
55610;BME280;41486;52.502;13.486;2022-12-18T02:08:09;102740.88;;;-6.85;100.00
55610;BME280;41486;52.502;13.486;2022-12-18T02:10:47;102738.66;;;-6.72;100.00
55610;BME280;41486;52.502;13.486;2022-12-18T02:13:29;102744.44;;;-6.79;100.00
55610;BME280;41486;52.502;13.486;2022-12-18T02:16:05;102743.34;;;-6.59;100.00
55610;BME280;41486;52.502;13.486;2022-12-18T02:18:42;102741.66;;;-6.57;100.00
55610;BME280;41486;52.502;13.486;2022-12-18T02:21:20;102752.84;;;-6.55;100.00
55610;BME280;41486;52.502;13.486;2022-12-18T02:23:59;102742.66;;;-6.53;100.00
55610;BME280;41486;52.502;13.486;2022-12-18T02:26:37;102741.50;;;-6.63;100.00
55610;BME280;41486;52.502;13.486;2022-12-18T02:29:11;102743.38;;;-6.27;100.00
55610;BME280;41486;52.502;13.486;2022-12-18T02:31:43;102742.44;;;-6.61;100.00
55610;BME280;41486;52.502;13.486;2022-12-18T02:34:13;102751.31;;;-6.78;100.00
55610;BME280;41486;52.502;13.486;2022-12-18T02:36:44;102747.97;;;-6.76;100.00
55610;BME280;41486;52.502;13.486;2022-12-18T02:39:15;102758.44;;;-6.68;100.00
55610;BME280;41486;52.502;13.486;2022-12-18T02:41:57;102757.38;;;-6.75;100.00
55610;BME280;41486;52.502;13.486;2022-12-18T02:44:26;102756.69;;;-6.69;100.00
55610;BME280;41486;52.502;13.486;2022-12-18T02:46:54;102762.22;;;-6.84;100.00
55610;BME280;41486;52.502;13.486;2022-12-18T02:49:31;102766.53;;;-6.83;100.00
55610;BME280;41486;52.502;13.486;2022-12-18T02:52:09;102773.50;;;-6.79;100.00
55610;BME280;41486;52.502;13.486;2022-12-18T02:54:49;102781.31;;;-6.74;100.00
55610;BME280;41486;52.502;13.486;2022-12-18T02:57:25;102778.06;;;-6.96;100.00
55610;BME280;41486;52.502;13.486;2022-12-18T03:00:00;102771.13;;;-7.00;100.00
55610;BME280;41486;52.502;13.486;2022-12-18T03:02:35;102767.41;;;-6.83;100.00
55610;BME280;41486;52.502;13.486;2022-12-18T03:05:10;102768.97;;;-6.59;100.00
55610;BME280;41486;52.502;13.486;2022-12-18T03:07:42;102765.66;;;-6.55;100.00
55610;BME280;41486;52.502;13.486;2022-12-18T03:10:15;102772.31;;;-6.61;100.00
55610;BME280;41486;52.502;13.486;2022-12-18T03:12:50;102772.06;;;-6.69;100.00
55610;BME280;41486;52.502;13.486;2022-12-18T03:15:23;102770.75;;;-7.13;100.00
55610;BME280;41486;52.502;13.486;2022-12-18T03:18:02;102769.94;;;-7.11;100.00
55610;BME280;41486;52.502;13.486;2022-12-18T03:20:34;102775.88;;;-6.85;100.00
55610;BME280;41486;52.502;13.486;2022-12-18T03:23:07;102773.03;;;-6.94;100.00
55610;BME280;41486;52.502;13.486;2022-12-18T03:25:40;102779.25;;;-6.86;100.00
55610;BME280;41486;52.502;13.486;2022-12-18T03:28:13;102772.88;;;-6.70;100.00
55610;BME280;41486;52.502;13.486;2022-12-18T03:30:44;102768.44;;;-6.76;100.00
55610;BME280;41486;52.502;13.486;2022-12-18T03:33:17;102772.97;;;-7.23;100.00
55610;BME280;41486;52.502;13.486;2022-12-18T03:35:49;102777.41;;;-6.90;100.00
55610;BME280;41486;52.502;13.486;2022-12-18T03:38:18;102785.88;;;-7.20;100.00
55610;BME280;41486;52.502;13.486;2022-12-18T03:40:56;102776.22;;;-7.02;100.00
55610;BME280;41486;52.502;13.486;2022-12-18T03:43:35;102774.13;;;-6.86;100.00
55610;BME280;41486;52.502;13.486;2022-12-18T03:46:15;102766.47;;;-6.85;100.00
55610;BME280;41486;52.502;13.486;2022-12-18T03:48:48;102767.69;;;-6.73;100.00
55610;BME280;41486;52.502;13.486;2022-12-18T03:51:25;102768.06;;;-6.90;100.00
55610;BME280;41486;52.502;13.486;2022-12-18T03:53:57;102779.28;;;-6.85;100.00
55610;BME280;41486;52.502;13.486;2022-12-18T03:56:32;102780.41;;;-6.75;100.00
55610;BME280;41486;52.502;13.486;2022-12-18T03:59:04;102793.28;;;-7.01;100.00
55610;BME280;41486;52.502;13.486;2022-12-18T04:01:34;102785.53;;;-7.04;100.00
55610;BME280;41486;52.502;13.486;2022-12-18T04:04:04;102787.34;;;-7.00;100.00
55610;BME280;41486;52.502;13.486;2022-12-18T04:06:37;102782.66;;;-7.15;100.00
55610;BME280;41486;52.502;13.486;2022-12-18T04:09:09;102776.63;;;-7.15;100.00
55610;BME280;41486;52.502;13.486;2022-12-18T04:11:41;102771.97;;;-7.01;100.00
55610;BME280;41486;52.502;13.486;2022-12-18T04:14:14;102775.97;;;-6.81;100.00
55610;BME280;41486;52.502;13.486;2022-12-18T04:16:47;102783.19;;;-6.96;100.00
55610;BME280;41486;52.502;13.486;2022-12-18T04:19:17;102773.84;;;-6.95;100.00
55610;BME280;41486;52.502;13.486;2022-12-18T04:21:48;102790.94;;;-7.22;100.00
55610;BME280;41486;52.502;13.486;2022-12-18T04:24:17;102796.28;;;-7.14;100.00
55610;BME280;41486;52.502;13.486;2022-12-18T04:26:54;102800.41;;;-7.19;100.00
55610;BME280;41486;52.502;13.486;2022-12-18T04:29:27;102800.75;;;-7.08;100.00
55610;BME280;41486;52.502;13.486;2022-12-18T04:31:55;102806.94;;;-7.02;100.00
55610;BME280;41486;52.502;13.486;2022-12-18T04:34:25;102805.69;;;-7.40;100.00
55610;BME280;41486;52.502;13.486;2022-12-18T04:36:54;102788.38;;;-7.49;100.00
55610;BME280;41486;52.502;13.486;2022-12-18T04:39:24;102795.97;;;-7.25;100.00
55610;BME280;41486;52.502;13.486;2022-12-18T04:41:55;102801.44;;;-7.40;100.00
55610;BME280;41486;52.502;13.486;2022-12-18T04:44:27;102811.34;;;-7.23;100.00
55610;BME280;41486;52.502;13.486;2022-12-18T04:46:55;102814.69;;;-7.26;100.00
55610;BME280;41486;52.502;13.486;2022-12-18T04:49:23;102814.22;;;-7.14;100.00
55610;BME280;41486;52.502;13.486;2022-12-18T04:51:51;102808.44;;;-7.60;100.00
55610;BME280;41486;52.502;13.486;2022-12-18T04:54:19;102803.47;;;-7.30;100.00
55610;BME280;41486;52.502;13.486;2022-12-18T04:56:47;102787.13;;;-7.07;100.00
55610;BME280;41486;52.502;13.486;2022-12-18T04:59:15;102806.09;;;-7.01;100.00
55610;BME280;41486;52.502;13.486;2022-12-18T05:01:44;102809.53;;;-7.00;100.00
55610;BME280;41486;52.502;13.486;2022-12-18T05:04:12;102813.09;;;-6.95;100.00
55610;BME280;41486;52.502;13.486;2022-12-18T05:06:40;102812.66;;;-7.09;100.00
55610;BME280;41486;52.502;13.486;2022-12-18T05:09:08;102810.72;;;-7.16;100.00
55610;BME280;41486;52.502;13.486;2022-12-18T05:11:36;102809.59;;;-7.24;100.00
55610;BME280;41486;52.502;13.486;2022-12-18T05:14:04;102810.84;;;-7.13;100.00
55610;BME280;41486;52.502;13.486;2022-12-18T05:16:32;102820.03;;;-7.46;100.00
55610;BME280;41486;52.502;13.486;2022-12-18T05:19:01;102816.09;;;-7.08;100.00
55610;BME280;41486;52.502;13.486;2022-12-18T05:21:29;102826.81;;;-7.20;100.00
55610;BME280;41486;52.502;13.486;2022-12-18T05:23:57;102824.63;;;-7.08;100.00
55610;BME280;41486;52.502;13.486;2022-12-18T05:26:28;102834.13;;;-7.05;100.00
55610;BME280;41486;52.502;13.486;2022-12-18T05:28:56;102834.97;;;-6.77;100.00
55610;BME280;41486;52.502;13.486;2022-12-18T05:31:24;102845.22;;;-6.77;100.00
55610;BME280;41486;52.502;13.486;2022-12-18T05:33:52;102851.41;;;-6.98;100.00
55610;BME280;41486;52.502;13.486;2022-12-18T05:36:21;102839.66;;;-7.19;100.00
55610;BME280;41486;52.502;13.486;2022-12-18T05:38:49;102847.56;;;-6.85;100.00
55610;BME280;41486;52.502;13.486;2022-12-18T05:41:17;102841.66;;;-6.83;100.00
55610;BME280;41486;52.502;13.486;2022-12-18T05:43:45;102849.25;;;-6.84;100.00
55610;BME280;41486;52.502;13.486;2022-12-18T05:46:15;102845.81;;;-6.86;100.00
55610;BME280;41486;52.502;13.486;2022-12-18T05:48:44;102851.00;;;-6.83;100.00
55610;BME280;41486;52.502;13.486;2022-12-18T05:51:14;102856.59;;;-6.95;100.00
55610;BME280;41486;52.502;13.486;2022-12-18T05:53:44;102842.56;;;-6.81;100.00
55610;BME280;41486;52.502;13.486;2022-12-18T05:56:14;102851.31;;;-6.74;100.00
55610;BME280;41486;52.502;13.486;2022-12-18T05:58:42;102845.53;;;-6.67;100.00
55610;BME280;41486;52.502;13.486;2022-12-18T06:01:13;102852.13;;;-6.75;100.00
55610;BME280;41486;52.502;13.486;2022-12-18T06:03:42;102859.72;;;-6.78;100.00
55610;BME280;41486;52.502;13.486;2022-12-18T06:06:15;102863.72;;;-6.86;100.00
55610;BME280;41486;52.502;13.486;2022-12-18T06:08:45;102868.31;;;-6.76;100.00
55610;BME280;41486;52.502;13.486;2022-12-18T06:11:16;102870.97;;;-6.73;100.00
55610;BME280;41486;52.502;13.486;2022-12-18T06:13:44;102868.25;;;-6.50;100.00
55610;BME280;41486;52.502;13.486;2022-12-18T06:16:12;102881.03;;;-6.79;100.00
55610;BME280;41486;52.502;13.486;2022-12-18T06:18:41;102873.88;;;-7.15;100.00
55610;BME280;41486;52.502;13.486;2022-12-18T06:21:09;102867.13;;;-7.13;100.00
55610;BME280;41486;52.502;13.486;2022-12-18T06:23:36;102875.72;;;-7.11;100.00
55610;BME280;41486;52.502;13.486;2022-12-18T06:26:08;102878.19;;;-7.14;100.00
55610;BME280;41486;52.502;13.486;2022-12-18T06:28:36;102883.13;;;-7.19;100.00
55610;BME280;41486;52.502;13.486;2022-12-18T06:31:04;102881.75;;;-7.09;100.00
55610;BME280;41486;52.502;13.486;2022-12-18T06:33:33;102893.69;;;-6.84;100.00
55610;BME280;41486;52.502;13.486;2022-12-18T06:36:02;102886.81;;;-6.85;100.00
55610;BME280;41486;52.502;13.486;2022-12-18T06:38:31;102896.63;;;-6.71;100.00
55610;BME280;41486;52.502;13.486;2022-12-18T06:40:59;102900.97;;;-6.69;100.00
55610;BME280;41486;52.502;13.486;2022-12-18T06:43:28;102911.59;;;-6.84;100.00
55610;BME280;41486;52.502;13.486;2022-12-18T06:46:00;102905.25;;;-6.95;100.00
55610;BME280;41486;52.502;13.486;2022-12-18T06:48:28;102913.06;;;-6.90;100.00
55610;BME280;41486;52.502;13.486;2022-12-18T06:50:56;102915.28;;;-7.01;100.00
55610;BME280;41486;52.502;13.486;2022-12-18T06:53:24;102900.44;;;-6.86;100.00
55610;BME280;41486;52.502;13.486;2022-12-18T06:55:52;102909.06;;;-6.82;100.00
55610;BME280;41486;52.502;13.486;2022-12-18T06:58:20;102923.47;;;-6.86;100.00
55610;BME280;41486;52.502;13.486;2022-12-18T07:00:50;102929.09;;;-6.70;100.00
55610;BME280;41486;52.502;13.486;2022-12-18T07:03:18;102940.88;;;-6.75;100.00
55610;BME280;41486;52.502;13.486;2022-12-18T07:05:46;102940.69;;;-5.96;100.00
55610;BME280;41486;52.502;13.486;2022-12-18T07:08:14;102930.19;;;-6.35;100.00
55610;BME280;41486;52.502;13.486;2022-12-18T07:10:42;102917.66;;;-6.54;100.00
55610;BME280;41486;52.502;13.486;2022-12-18T07:13:15;102909.88;;;-6.57;100.00
55610;BME280;41486;52.502;13.486;2022-12-18T07:15:43;102919.03;;;-6.64;100.00
55610;BME280;41486;52.502;13.486;2022-12-18T07:18:12;102912.13;;;-6.67;100.00
55610;BME280;41486;52.502;13.486;2022-12-18T07:20:41;102924.63;;;-6.76;100.00
55610;BME280;41486;52.502;13.486;2022-12-18T07:23:08;102922.81;;;-6.80;100.00
55610;BME280;41486;52.502;13.486;2022-12-18T07:25:36;102928.78;;;-6.52;100.00
55610;BME280;41486;52.502;13.486;2022-12-18T07:28:06;102931.13;;;-6.60;100.00
55610;BME280;41486;52.502;13.486;2022-12-18T07:30:40;102935.59;;;-6.54;100.00
55610;BME280;41486;52.502;13.486;2022-12-18T07:33:08;102931.56;;;-6.73;100.00
55610;BME280;41486;52.502;13.486;2022-12-18T07:35:38;102924.06;;;-6.67;100.00
55610;BME280;41486;52.502;13.486;2022-12-18T07:38:06;102923.03;;;-6.72;100.00
55610;BME280;41486;52.502;13.486;2022-12-18T07:40:34;102921.84;;;-6.56;100.00
55610;BME280;41486;52.502;13.486;2022-12-18T07:43:02;102923.41;;;-6.61;100.00
55610;BME280;41486;52.502;13.486;2022-12-18T07:45:30;102932.25;;;-6.52;100.00
55610;BME280;41486;52.502;13.486;2022-12-18T07:47:58;102932.13;;;-6.55;100.00
55610;BME280;41486;52.502;13.486;2022-12-18T07:50:26;102935.66;;;-6.51;100.00
55610;BME280;41486;52.502;13.486;2022-12-18T07:52:55;102936.72;;;-6.72;100.00
55610;BME280;41486;52.502;13.486;2022-12-18T07:55:23;102935.47;;;-6.57;100.00
55610;BME280;41486;52.502;13.486;2022-12-18T07:57:51;102932.09;;;-6.56;100.00
55610;BME280;41486;52.502;13.486;2022-12-18T08:00:26;102919.72;;;-6.70;100.00
55610;BME280;41486;52.502;13.486;2022-12-18T08:02:54;102929.69;;;-6.52;100.00
55610;BME280;41486;52.502;13.486;2022-12-18T08:05:23;102932.25;;;-6.52;100.00
55610;BME280;41486;52.502;13.486;2022-12-18T08:07:51;102934.00;;;-6.51;100.00
55610;BME280;41486;52.502;13.486;2022-12-18T08:10:21;102935.31;;;-6.62;100.00
55610;BME280;41486;52.502;13.486;2022-12-18T08:12:50;102937.06;;;-6.61;100.00
55610;BME280;41486;52.502;13.486;2022-12-18T08:15:18;102937.88;;;-6.62;100.00
55610;BME280;41486;52.502;13.486;2022-12-18T08:17:46;102932.69;;;-6.65;100.00
55610;BME280;41486;52.502;13.486;2022-12-18T08:20:14;102935.72;;;-6.50;100.00
55610;BME280;41486;52.502;13.486;2022-12-18T08:22:43;102936.41;;;-6.55;100.00
55610;BME280;41486;52.502;13.486;2022-12-18T08:25:12;102934.50;;;-6.61;100.00
55610;BME280;41486;52.502;13.486;2022-12-18T08:27:41;102944.09;;;-6.55;100.00
55610;BME280;41486;52.502;13.486;2022-12-18T08:30:11;102948.63;;;-6.46;100.00
55610;BME280;41486;52.502;13.486;2022-12-18T08:32:39;102945.19;;;-6.47;100.00
55610;BME280;41486;52.502;13.486;2022-12-18T08:35:08;102951.97;;;-6.49;100.00
55610;BME280;41486;52.502;13.486;2022-12-18T08:37:38;102941.53;;;-6.55;100.00
55610;BME280;41486;52.502;13.486;2022-12-18T08:40:09;102935.59;;;-6.54;100.00
55610;BME280;41486;52.502;13.486;2022-12-18T08:42:37;102943.78;;;-6.37;100.00
55610;BME280;41486;52.502;13.486;2022-12-18T08:45:24;102959.31;;;-6.32;100.00
55610;BME280;41486;52.502;13.486;2022-12-18T08:47:52;102959.94;;;-6.40;100.00
55610;BME280;41486;52.502;13.486;2022-12-18T08:50:21;102967.78;;;-6.35;100.00
55610;BME280;41486;52.502;13.486;2022-12-18T08:52:49;102962.03;;;-6.28;100.00
55610;BME280;41486;52.502;13.486;2022-12-18T08:55:18;102955.09;;;-6.30;100.00
55610;BME280;41486;52.502;13.486;2022-12-18T08:57:48;102965.38;;;-6.30;100.00
55610;BME280;41486;52.502;13.486;2022-12-18T09:00:16;102970.00;;;-6.19;100.00
55610;BME280;41486;52.502;13.486;2022-12-18T09:02:46;102979.47;;;-6.16;100.00
55610;BME280;41486;52.502;13.486;2022-12-18T09:05:15;102981.56;;;-6.31;100.00
55610;BME280;41486;52.502;13.486;2022-12-18T09:07:45;102976.91;;;-6.16;100.00
55610;BME280;41486;52.502;13.486;2022-12-18T09:10:13;102975.59;;;-6.03;100.00
55610;BME280;41486;52.502;13.486;2022-12-18T09:12:41;102981.69;;;-5.99;100.00
55610;BME280;41486;52.502;13.486;2022-12-18T09:15:10;102988.16;;;-6.11;100.00
55610;BME280;41486;52.502;13.486;2022-12-18T09:17:38;102983.34;;;-6.00;100.00
55610;BME280;41486;52.502;13.486;2022-12-18T09:20:08;102981.19;;;-5.86;100.00
55610;BME280;41486;52.502;13.486;2022-12-18T09:22:36;102982.69;;;-5.93;100.00
55610;BME280;41486;52.502;13.486;2022-12-18T09:25:05;102986.22;;;-5.89;100.00
55610;BME280;41486;52.502;13.486;2022-12-18T09:27:34;102992.47;;;-5.81;100.00
55610;BME280;41486;52.502;13.486;2022-12-18T09:30:04;102993.41;;;-5.77;100.00
55610;BME280;41486;52.502;13.486;2022-12-18T09:32:32;102986.88;;;-5.66;100.00
55610;BME280;41486;52.502;13.486;2022-12-18T09:35:00;102994.72;;;-5.61;100.00
55610;BME280;41486;52.502;13.486;2022-12-18T09:37:30;102992.97;;;-5.62;100.00
55610;BME280;41486;52.502;13.486;2022-12-18T09:39:58;102986.03;;;-5.66;100.00
55610;BME280;41486;52.502;13.486;2022-12-18T09:42:26;102984.63;;;-5.55;100.00
55610;BME280;41486;52.502;13.486;2022-12-18T09:44:54;102979.56;;;-5.53;100.00
55610;BME280;41486;52.502;13.486;2022-12-18T09:47:25;102970.47;;;-5.41;100.00
55610;BME280;41486;52.502;13.486;2022-12-18T09:49:58;102964.47;;;-5.43;100.00
55610;BME280;41486;52.502;13.486;2022-12-18T09:52:30;102963.28;;;-5.22;100.00
55610;BME280;41486;52.502;13.486;2022-12-18T09:55:08;102956.41;;;-5.23;100.00
55610;BME280;41486;52.502;13.486;2022-12-18T09:57:47;102959.88;;;-5.23;100.00
55610;BME280;41486;52.502;13.486;2022-12-18T10:00:17;102947.81;;;-5.25;100.00
55610;BME280;41486;52.502;13.486;2022-12-18T10:02:47;102938.38;;;-5.26;100.00
55610;BME280;41486;52.502;13.486;2022-12-18T10:05:17;102936.81;;;-5.19;100.00
55610;BME280;41486;52.502;13.486;2022-12-18T10:07:55;102931.66;;;-5.21;100.00
55610;BME280;41486;52.502;13.486;2022-12-18T10:10:32;102924.25;;;-5.09;100.00
55610;BME280;41486;52.502;13.486;2022-12-18T10:13:09;102923.03;;;-5.23;100.00
55610;BME280;41486;52.502;13.486;2022-12-18T10:15:52;102912.66;;;-4.94;100.00
55610;BME280;41486;52.502;13.486;2022-12-18T10:18:32;102917.69;;;-4.99;100.00
55610;BME280;41486;52.502;13.486;2022-12-18T10:21:09;102927.97;;;-4.99;100.00
55610;BME280;41486;52.502;13.486;2022-12-18T10:23:46;102923.88;;;-4.91;100.00
55610;BME280;41486;52.502;13.486;2022-12-18T10:26:18;102926.50;;;-4.87;100.00
55610;BME280;41486;52.502;13.486;2022-12-18T10:28:47;102922.13;;;-4.92;100.00
55610;BME280;41486;52.502;13.486;2022-12-18T10:31:19;102925.28;;;-5.02;100.00
55610;BME280;41486;52.502;13.486;2022-12-18T10:33:50;102919.44;;;-4.98;100.00
55610;BME280;41486;52.502;13.486;2022-12-18T10:36:20;102917.75;;;-4.96;100.00
55610;BME280;41486;52.502;13.486;2022-12-18T10:38:51;102923.13;;;-4.86;100.00
55610;BME280;41486;52.502;13.486;2022-12-18T10:41:26;102913.19;;;-4.72;100.00
55610;BME280;41486;52.502;13.486;2022-12-18T10:44:11;102911.28;;;-4.80;100.00
55610;BME280;41486;52.502;13.486;2022-12-18T10:46:40;102900.41;;;-4.69;100.00
55610;BME280;41486;52.502;13.486;2022-12-18T10:49:19;102893.69;;;-4.64;100.00
55610;BME280;41486;52.502;13.486;2022-12-18T10:51:49;102899.31;;;-4.79;100.00
55610;BME280;41486;52.502;13.486;2022-12-18T10:54:21;102896.69;;;-4.82;100.00
55610;BME280;41486;52.502;13.486;2022-12-18T10:56:50;102902.69;;;-4.82;100.00
55610;BME280;41486;52.502;13.486;2022-12-18T10:59:18;102895.09;;;-4.76;100.00
55610;BME280;41486;52.502;13.486;2022-12-18T11:01:49;102873.97;;;-4.64;100.00
55610;BME280;41486;52.502;13.486;2022-12-18T11:04:20;102876.06;;;-4.84;100.00
55610;BME280;41486;52.502;13.486;2022-12-18T11:06:54;102877.06;;;-4.79;100.00
55610;BME280;41486;52.502;13.486;2022-12-18T11:09:25;102883.91;;;-4.79;100.00
55610;BME280;41486;52.502;13.486;2022-12-18T11:11:56;102879.59;;;-4.80;100.00
55610;BME280;41486;52.502;13.486;2022-12-18T11:14:27;102880.75;;;-4.67;100.00
55610;BME280;41486;52.502;13.486;2022-12-18T11:16:57;102879.75;;;-4.74;100.00
55610;BME280;41486;52.502;13.486;2022-12-18T11:19:52;102873.84;;;-4.70;100.00
55610;BME280;41486;52.502;13.486;2022-12-18T11:22:21;102880.38;;;-4.84;100.00
55610;BME280;41486;52.502;13.486;2022-12-18T11:24:56;102865.84;;;-4.82;100.00
55610;BME280;41486;52.502;13.486;2022-12-18T11:27:48;102878.00;;;-4.75;100.00
55610;BME280;41486;52.502;13.486;2022-12-18T11:30:25;102869.63;;;-4.66;100.00
55610;BME280;41486;52.502;13.486;2022-12-18T11:33:01;102879.38;;;-4.53;100.00
55610;BME280;41486;52.502;13.486;2022-12-18T11:35:39;102886.91;;;-4.61;100.00
55610;BME280;41486;52.502;13.486;2022-12-18T11:38:17;102888.53;;;-4.64;100.00
55610;BME280;41486;52.502;13.486;2022-12-18T11:40:52;102883.53;;;-4.58;100.00
55610;BME280;41486;52.502;13.486;2022-12-18T11:43:27;102886.34;;;-4.47;100.00
55610;BME280;41486;52.502;13.486;2022-12-18T11:45:59;102882.50;;;-4.66;100.00
55610;BME280;41486;52.502;13.486;2022-12-18T11:48:33;102877.66;;;-4.52;100.00
55610;BME280;41486;52.502;13.486;2022-12-18T11:51:04;102888.41;;;-4.70;100.00
55610;BME280;41486;52.502;13.486;2022-12-18T11:53:33;102887.25;;;-4.82;100.00
55610;BME280;41486;52.502;13.486;2022-12-18T11:56:30;102890.75;;;-4.80;100.00
55610;BME280;41486;52.502;13.486;2022-12-18T11:59:09;102908.31;;;-4.60;100.00
55610;BME280;41486;52.502;13.486;2022-12-18T12:01:48;102909.09;;;-4.64;100.00
55610;BME280;41486;52.502;13.486;2022-12-18T12:04:51;102905.47;;;-4.72;100.00
55610;BME280;41486;52.502;13.486;2022-12-18T12:07:33;102909.78;;;-4.71;100.00
55610;BME280;41486;52.502;13.486;2022-12-18T12:10:16;102906.38;;;-4.70;100.00
55610;BME280;41486;52.502;13.486;2022-12-18T12:12:59;102915.13;;;-4.62;100.00
55610;BME280;41486;52.502;13.486;2022-12-18T12:15:36;102918.03;;;-4.85;100.00
55610;BME280;41486;52.502;13.486;2022-12-18T12:18:15;102914.94;;;-4.70;100.00
55610;BME280;41486;52.502;13.486;2022-12-18T12:20:52;102917.16;;;-4.49;100.00
55610;BME280;41486;52.502;13.486;2022-12-18T12:23:31;102911.53;;;-4.32;100.00
55610;BME280;41486;52.502;13.486;2022-12-18T12:26:06;102910.22;;;-4.53;100.00
55610;BME280;41486;52.502;13.486;2022-12-18T12:28:56;102919.72;;;-4.49;100.00
55610;BME280;41486;52.502;13.486;2022-12-18T12:31:37;102918.69;;;-4.55;100.00
55610;BME280;41486;52.502;13.486;2022-12-18T12:34:16;102928.16;;;-4.54;100.00
55610;BME280;41486;52.502;13.486;2022-12-18T12:36:55;102931.78;;;-4.45;100.00
55610;BME280;41486;52.502;13.486;2022-12-18T12:39:33;102923.81;;;-4.57;100.00
55610;BME280;41486;52.502;13.486;2022-12-18T12:42:04;102935.03;;;-4.53;100.00
55610;BME280;41486;52.502;13.486;2022-12-18T12:44:55;102936.66;;;-4.57;100.00
55610;BME280;41486;52.502;13.486;2022-12-18T12:47:28;102931.50;;;-4.58;100.00
55610;BME280;41486;52.502;13.486;2022-12-18T12:49:59;102928.22;;;-4.53;100.00
55610;BME280;41486;52.502;13.486;2022-12-18T12:52:35;102930.38;;;-4.32;100.00
55610;BME280;41486;52.502;13.486;2022-12-18T12:55:07;102935.03;;;-4.53;100.00